sensor_id;sensor_type;location;lat;lon;timestamp;P1;durP1;ratioP1;P2;durP2;ratioP2
4397;SDS011;2213;49.720;7.296;2023-03-04T00:02:20;54.03;;;17.67;;
4397;SDS011;2213;49.720;7.296;2023-03-04T00:04:49;52.77;;;18.80;;
4397;SDS011;2213;49.720;7.296;2023-03-04T00:07:19;60.80;;;19.93;;
4397;SDS011;2213;49.720;7.296;2023-03-04T00:09:51;48.57;;;17.47;;
4397;SDS011;2213;49.720;7.296;2023-03-04T00:12:20;45.50;;;17.37;;
4397;SDS011;2213;49.720;7.296;2023-03-04T00:14:50;54.77;;;17.00;;
4397;SDS011;2213;49.720;7.296;2023-03-04T00:17:21;43.97;;;15.93;;
4397;SDS011;2213;49.720;7.296;2023-03-04T00:19:51;43.80;;;18.13;;
4397;SDS011;2213;49.720;7.296;2023-03-04T00:22:23;55.93;;;18.80;;
4397;SDS011;2213;49.720;7.296;2023-03-04T00:24:54;44.77;;;18.17;;
4397;SDS011;2213;49.720;7.296;2023-03-04T00:27:25;54.33;;;18.90;;
4397;SDS011;2213;49.720;7.296;2023-03-04T00:29:54;50.47;;;17.90;;
4397;SDS011;2213;49.720;7.296;2023-03-04T00:32:24;58.17;;;19.10;;
4397;SDS011;2213;49.720;7.296;2023-03-04T00:34:53;47.00;;;16.57;;
4397;SDS011;2213;49.720;7.296;2023-03-04T00:37:23;56.73;;;16.93;;
4397;SDS011;2213;49.720;7.296;2023-03-04T00:39:53;38.80;;;16.60;;
4397;SDS011;2213;49.720;7.296;2023-03-04T00:42:23;50.07;;;18.57;;
4397;SDS011;2213;49.720;7.296;2023-03-04T00:44:53;59.30;;;18.30;;
4397;SDS011;2213;49.720;7.296;2023-03-04T00:47:23;50.27;;;18.83;;
4397;SDS011;2213;49.720;7.296;2023-03-04T00:49:53;47.40;;;18.80;;
4397;SDS011;2213;49.720;7.296;2023-03-04T00:52:24;53.63;;;19.30;;
4397;SDS011;2213;49.720;7.296;2023-03-04T00:54:55;52.03;;;20.10;;
4397;SDS011;2213;49.720;7.296;2023-03-04T00:57:24;45.13;;;16.13;;
4397;SDS011;2213;49.720;7.296;2023-03-04T00:59:54;47.97;;;18.10;;
4397;SDS011;2213;49.720;7.296;2023-03-04T01:02:24;51.30;;;19.30;;
4397;SDS011;2213;49.720;7.296;2023-03-04T01:04:53;54.00;;;18.70;;
4397;SDS011;2213;49.720;7.296;2023-03-04T01:07:25;43.87;;;17.17;;
4397;SDS011;2213;49.720;7.296;2023-03-04T01:09:55;60.70;;;18.87;;
4397;SDS011;2213;49.720;7.296;2023-03-04T01:12:25;49.60;;;17.97;;
4397;SDS011;2213;49.720;7.296;2023-03-04T01:14:56;53.43;;;16.47;;
4397;SDS011;2213;49.720;7.296;2023-03-04T01:17:26;50.63;;;17.37;;
4397;SDS011;2213;49.720;7.296;2023-03-04T01:19:56;56.57;;;18.23;;
4397;SDS011;2213;49.720;7.296;2023-03-04T01:22:27;43.83;;;16.73;;
4397;SDS011;2213;49.720;7.296;2023-03-04T01:24:56;48.30;;;17.97;;
4397;SDS011;2213;49.720;7.296;2023-03-04T01:27:27;45.10;;;16.67;;
4397;SDS011;2213;49.720;7.296;2023-03-04T01:29:56;53.17;;;17.00;;
4397;SDS011;2213;49.720;7.296;2023-03-04T01:32:25;49.00;;;16.77;;
4397;SDS011;2213;49.720;7.296;2023-03-04T01:34:55;48.57;;;18.13;;
4397;SDS011;2213;49.720;7.296;2023-03-04T01:37:27;50.50;;;18.00;;
4397;SDS011;2213;49.720;7.296;2023-03-04T01:39:55;51.37;;;20.43;;
4397;SDS011;2213;49.720;7.296;2023-03-04T01:42:25;56.20;;;17.97;;
4397;SDS011;2213;49.720;7.296;2023-03-04T01:45:00;39.97;;;15.90;;
4397;SDS011;2213;49.720;7.296;2023-03-04T01:47:30;52.33;;;19.13;;
4397;SDS011;2213;49.720;7.296;2023-03-04T01:50:02;55.07;;;20.03;;
4397;SDS011;2213;49.720;7.296;2023-03-04T01:52:44;58.77;;;19.50;;
4397;SDS011;2213;49.720;7.296;2023-03-04T01:55:15;38.97;;;16.27;;
4397;SDS011;2213;49.720;7.296;2023-03-04T01:57:48;47.90;;;17.50;;
4397;SDS011;2213;49.720;7.296;2023-03-04T02:00:21;47.13;;;16.67;;
4397;SDS011;2213;49.720;7.296;2023-03-04T02:02:57;49.97;;;18.03;;
4397;SDS011;2213;49.720;7.296;2023-03-04T02:05:33;57.47;;;16.60;;
4397;SDS011;2213;49.720;7.296;2023-03-04T02:08:06;42.33;;;15.93;;
4397;SDS011;2213;49.720;7.296;2023-03-04T02:10:38;49.43;;;17.00;;
4397;SDS011;2213;49.720;7.296;2023-03-04T02:13:09;36.33;;;15.47;;
4397;SDS011;2213;49.720;7.296;2023-03-04T02:15:39;51.73;;;18.10;;
4397;SDS011;2213;49.720;7.296;2023-03-04T02:18:13;63.30;;;18.30;;
4397;SDS011;2213;49.720;7.296;2023-03-04T02:20:47;52.93;;;17.57;;
4397;SDS011;2213;49.720;7.296;2023-03-04T02:23:34;59.07;;;17.53;;
4397;SDS011;2213;49.720;7.296;2023-03-04T02:26:16;54.23;;;17.90;;
4397;SDS011;2213;49.720;7.296;2023-03-04T02:28:49;42.87;;;18.40;;
4397;SDS011;2213;49.720;7.296;2023-03-04T02:31:24;46.20;;;17.57;;
4397;SDS011;2213;49.720;7.296;2023-03-04T02:33:59;49.93;;;17.93;;
4397;SDS011;2213;49.720;7.296;2023-03-04T02:36:33;53.10;;;17.70;;
4397;SDS011;2213;49.720;7.296;2023-03-04T02:39:04;56.10;;;19.33;;
4397;SDS011;2213;49.720;7.296;2023-03-04T02:41:41;47.47;;;17.13;;
4397;SDS011;2213;49.720;7.296;2023-03-04T02:44:14;45.03;;;17.13;;
4397;SDS011;2213;49.720;7.296;2023-03-04T02:46:48;55.50;;;19.60;;
4397;SDS011;2213;49.720;7.296;2023-03-04T02:49:19;38.73;;;18.00;;
4397;SDS011;2213;49.720;7.296;2023-03-04T02:51:51;53.67;;;18.00;;
4397;SDS011;2213;49.720;7.296;2023-03-04T02:54:27;51.53;;;18.60;;
4397;SDS011;2213;49.720;7.296;2023-03-04T02:56:58;48.87;;;18.40;;
4397;SDS011;2213;49.720;7.296;2023-03-04T02:59:29;49.70;;;19.07;;
4397;SDS011;2213;49.720;7.296;2023-03-04T03:01:59;44.63;;;17.87;;
4397;SDS011;2213;49.720;7.296;2023-03-04T03:04:29;45.73;;;17.70;;
4397;SDS011;2213;49.720;7.296;2023-03-04T03:06:59;53.73;;;19.20;;
4397;SDS011;2213;49.720;7.296;2023-03-04T03:09:28;50.10;;;16.40;;
4397;SDS011;2213;49.720;7.296;2023-03-04T03:11:58;43.87;;;17.20;;
4397;SDS011;2213;49.720;7.296;2023-03-04T03:14:28;44.60;;;16.90;;
4397;SDS011;2213;49.720;7.296;2023-03-04T03:16:57;46.77;;;16.93;;
4397;SDS011;2213;49.720;7.296;2023-03-04T03:19:27;52.10;;;17.17;;
4397;SDS011;2213;49.720;7.296;2023-03-04T03:21:57;52.43;;;18.60;;
4397;SDS011;2213;49.720;7.296;2023-03-04T03:24:28;48.57;;;16.80;;
4397;SDS011;2213;49.720;7.296;2023-03-04T03:26:59;51.80;;;17.20;;
4397;SDS011;2213;49.720;7.296;2023-03-04T03:29:29;48.73;;;16.57;;
4397;SDS011;2213;49.720;7.296;2023-03-04T03:31:58;43.70;;;15.73;;
4397;SDS011;2213;49.720;7.296;2023-03-04T03:34:27;43.90;;;16.07;;
4397;SDS011;2213;49.720;7.296;2023-03-04T03:36:57;54.90;;;16.53;;
4397;SDS011;2213;49.720;7.296;2023-03-04T03:39:27;55.97;;;19.30;;
4397;SDS011;2213;49.720;7.296;2023-03-04T03:41:57;65.80;;;17.20;;
4397;SDS011;2213;49.720;7.296;2023-03-04T03:44:29;43.37;;;16.60;;
4397;SDS011;2213;49.720;7.296;2023-03-04T03:46:58;53.70;;;18.00;;
4397;SDS011;2213;49.720;7.296;2023-03-04T03:49:28;46.97;;;17.37;;
4397;SDS011;2213;49.720;7.296;2023-03-04T03:51:58;48.30;;;17.93;;
4397;SDS011;2213;49.720;7.296;2023-03-04T03:54:27;44.70;;;17.10;;
4397;SDS011;2213;49.720;7.296;2023-03-04T03:56:57;36.60;;;15.53;;
4397;SDS011;2213;49.720;7.296;2023-03-04T03:59:28;52.60;;;17.17;;
4397;SDS011;2213;49.720;7.296;2023-03-04T04:01:58;46.57;;;18.43;;
4397;SDS011;2213;49.720;7.296;2023-03-04T04:04:27;46.00;;;18.67;;
4397;SDS011;2213;49.720;7.296;2023-03-04T04:06:57;53.50;;;16.73;;
4397;SDS011;2213;49.720;7.296;2023-03-04T04:09:26;51.60;;;18.10;;
4397;SDS011;2213;49.720;7.296;2023-03-04T04:11:56;45.93;;;16.40;;
4397;SDS011;2213;49.720;7.296;2023-03-04T04:14:27;35.37;;;16.10;;
4397;SDS011;2213;49.720;7.296;2023-03-04T04:16:57;40.37;;;16.40;;
4397;SDS011;2213;49.720;7.296;2023-03-04T04:19:27;42.30;;;15.63;;
4397;SDS011;2213;49.720;7.296;2023-03-04T04:21:56;37.13;;;14.70;;
4397;SDS011;2213;49.720;7.296;2023-03-04T04:24:26;44.17;;;18.23;;
4397;SDS011;2213;49.720;7.296;2023-03-04T04:26:55;42.43;;;15.27;;
4397;SDS011;2213;49.720;7.296;2023-03-04T04:29:24;35.53;;;15.80;;
4397;SDS011;2213;49.720;7.296;2023-03-04T04:31:55;42.17;;;14.90;;
4397;SDS011;2213;49.720;7.296;2023-03-04T04:34:25;40.30;;;16.07;;
4397;SDS011;2213;49.720;7.296;2023-03-04T04:36:54;41.97;;;16.80;;
4397;SDS011;2213;49.720;7.296;2023-03-04T04:39:23;49.40;;;16.67;;
4397;SDS011;2213;49.720;7.296;2023-03-04T04:41:54;39.93;;;16.23;;
4397;SDS011;2213;49.720;7.296;2023-03-04T04:44:24;46.13;;;17.60;;
4397;SDS011;2213;49.720;7.296;2023-03-04T04:46:56;38.07;;;14.90;;
4397;SDS011;2213;49.720;7.296;2023-03-04T04:49:27;34.93;;;14.80;;
4397;SDS011;2213;49.720;7.296;2023-03-04T04:51:57;38.27;;;13.83;;
4397;SDS011;2213;49.720;7.296;2023-03-04T04:54:27;41.87;;;16.37;;
4397;SDS011;2213;49.720;7.296;2023-03-04T04:56:57;43.63;;;16.57;;
4397;SDS011;2213;49.720;7.296;2023-03-04T04:59:27;45.30;;;15.73;;
4397;SDS011;2213;49.720;7.296;2023-03-04T05:01:57;40.90;;;17.50;;
4397;SDS011;2213;49.720;7.296;2023-03-04T05:04:27;39.27;;;15.90;;
4397;SDS011;2213;49.720;7.296;2023-03-04T05:06:56;44.50;;;16.07;;
4397;SDS011;2213;49.720;7.296;2023-03-04T05:09:27;47.60;;;17.27;;
4397;SDS011;2213;49.720;7.296;2023-03-04T05:11:56;38.07;;;15.33;;
4397;SDS011;2213;49.720;7.296;2023-03-04T05:14:27;43.20;;;16.20;;
4397;SDS011;2213;49.720;7.296;2023-03-04T05:16:56;47.27;;;19.90;;
4397;SDS011;2213;49.720;7.296;2023-03-04T05:19:26;51.77;;;16.77;;
4397;SDS011;2213;49.720;7.296;2023-03-04T05:21:56;41.47;;;16.57;;
4397;SDS011;2213;49.720;7.296;2023-03-04T05:24:26;54.85;;;23.52;;
4397;SDS011;2213;49.720;7.296;2023-03-04T05:26:56;45.33;;;17.40;;
4397;SDS011;2213;49.720;7.296;2023-03-04T05:29:27;39.90;;;16.50;;
4397;SDS011;2213;49.720;7.296;2023-03-04T05:31:58;49.17;;;18.40;;
4397;SDS011;2213;49.720;7.296;2023-03-04T05:34:27;48.30;;;18.13;;
4397;SDS011;2213;49.720;7.296;2023-03-04T05:36:57;48.50;;;17.97;;
4397;SDS011;2213;49.720;7.296;2023-03-04T05:39:26;45.53;;;20.23;;
4397;SDS011;2213;49.720;7.296;2023-03-04T05:41:56;43.80;;;18.50;;
4397;SDS011;2213;49.720;7.296;2023-03-04T05:44:25;46.97;;;18.90;;
4397;SDS011;2213;49.720;7.296;2023-03-04T05:46:56;48.93;;;18.80;;
4397;SDS011;2213;49.720;7.296;2023-03-04T05:49:27;52.70;;;20.90;;
4397;SDS011;2213;49.720;7.296;2023-03-04T05:51:57;48.47;;;18.47;;
4397;SDS011;2213;49.720;7.296;2023-03-04T05:54:27;48.53;;;20.87;;
4397;SDS011;2213;49.720;7.296;2023-03-04T05:56:57;42.47;;;17.63;;
4397;SDS011;2213;49.720;7.296;2023-03-04T05:59:28;45.33;;;19.43;;
4397;SDS011;2213;49.720;7.296;2023-03-04T06:01:56;53.07;;;20.60;;
4397;SDS011;2213;49.720;7.296;2023-03-04T06:04:26;51.50;;;19.73;;
4397;SDS011;2213;49.720;7.296;2023-03-04T06:06:56;51.30;;;19.57;;
4397;SDS011;2213;49.720;7.296;2023-03-04T06:09:26;54.93;;;20.40;;
4397;SDS011;2213;49.720;7.296;2023-03-04T06:11:56;49.40;;;17.87;;
4397;SDS011;2213;49.720;7.296;2023-03-04T06:14:28;43.27;;;18.30;;
4397;SDS011;2213;49.720;7.296;2023-03-04T06:16:57;39.63;;;17.13;;
4397;SDS011;2213;49.720;7.296;2023-03-04T06:19:28;35.50;;;16.70;;
4397;SDS011;2213;49.720;7.296;2023-03-04T06:21:58;36.60;;;16.47;;
4397;SDS011;2213;49.720;7.296;2023-03-04T06:24:28;34.90;;;17.80;;
4397;SDS011;2213;49.720;7.296;2023-03-04T06:26:56;41.77;;;18.17;;
4397;SDS011;2213;49.720;7.296;2023-03-04T06:29:25;47.03;;;18.17;;
4397;SDS011;2213;49.720;7.296;2023-03-04T06:31:56;33.30;;;16.63;;
4397;SDS011;2213;49.720;7.296;2023-03-04T06:34:25;24.60;;;13.80;;
4397;SDS011;2213;49.720;7.296;2023-03-04T06:36:56;27.67;;;14.40;;
4397;SDS011;2213;49.720;7.296;2023-03-04T06:39:26;30.53;;;15.77;;
4397;SDS011;2213;49.720;7.296;2023-03-04T06:41:55;31.17;;;14.97;;
4397;SDS011;2213;49.720;7.296;2023-03-04T06:44:25;33.67;;;16.53;;
4397;SDS011;2213;49.720;7.296;2023-03-04T06:46:56;29.23;;;15.33;;
4397;SDS011;2213;49.720;7.296;2023-03-04T06:49:26;28.03;;;13.90;;
4397;SDS011;2213;49.720;7.296;2023-03-04T06:51:55;34.77;;;14.73;;
4397;SDS011;2213;49.720;7.296;2023-03-04T06:54:25;27.50;;;12.70;;
4397;SDS011;2213;49.720;7.296;2023-03-04T06:56:54;30.13;;;13.37;;
4397;SDS011;2213;49.720;7.296;2023-03-04T06:59:25;21.23;;;11.17;;
4397;SDS011;2213;49.720;7.296;2023-03-04T07:01:57;29.53;;;13.30;;
4397;SDS011;2213;49.720;7.296;2023-03-04T07:04:27;31.37;;;13.23;;
4397;SDS011;2213;49.720;7.296;2023-03-04T07:06:57;24.87;;;12.00;;
4397;SDS011;2213;49.720;7.296;2023-03-04T07:09:27;29.87;;;13.23;;
4397;SDS011;2213;49.720;7.296;2023-03-04T07:11:57;30.83;;;12.63;;
4397;SDS011;2213;49.720;7.296;2023-03-04T07:14:27;32.97;;;12.10;;
4397;SDS011;2213;49.720;7.296;2023-03-04T07:16:59;28.33;;;12.20;;
4397;SDS011;2213;49.720;7.296;2023-03-04T07:19:30;33.40;;;14.10;;
4397;SDS011;2213;49.720;7.296;2023-03-04T07:22:00;37.90;;;12.57;;
4397;SDS011;2213;49.720;7.296;2023-03-04T07:24:29;22.20;;;10.47;;
4397;SDS011;2213;49.720;7.296;2023-03-04T07:26:58;25.17;;;10.97;;
4397;SDS011;2213;49.720;7.296;2023-03-04T07:29:28;28.93;;;13.40;;
4397;SDS011;2213;49.720;7.296;2023-03-04T07:31:58;31.80;;;11.43;;
4397;SDS011;2213;49.720;7.296;2023-03-04T07:34:29;26.30;;;12.20;;
4397;SDS011;2213;49.720;7.296;2023-03-04T07:36:59;31.23;;;14.07;;
4397;SDS011;2213;49.720;7.296;2023-03-04T07:39:29;26.17;;;11.87;;
4397;SDS011;2213;49.720;7.296;2023-03-04T07:41:59;22.13;;;10.73;;
4397;SDS011;2213;49.720;7.296;2023-03-04T07:44:31;37.27;;;12.50;;
4397;SDS011;2213;49.720;7.296;2023-03-04T07:47:02;25.30;;;11.37;;
4397;SDS011;2213;49.720;7.296;2023-03-04T07:49:32;25.63;;;11.50;;
4397;SDS011;2213;49.720;7.296;2023-03-04T07:52:01;24.07;;;10.30;;
4397;SDS011;2213;49.720;7.296;2023-03-04T07:54:31;27.93;;;10.37;;
4397;SDS011;2213;49.720;7.296;2023-03-04T07:57:01;26.13;;;11.50;;
4397;SDS011;2213;49.720;7.296;2023-03-04T07:59:30;25.37;;;10.23;;
4397;SDS011;2213;49.720;7.296;2023-03-04T08:02:00;26.00;;;9.43;;
4397;SDS011;2213;49.720;7.296;2023-03-04T08:04:31;21.93;;;9.10;;
4397;SDS011;2213;49.720;7.296;2023-03-04T08:07:01;23.80;;;10.73;;
4397;SDS011;2213;49.720;7.296;2023-03-04T08:09:30;26.50;;;9.50;;
4397;SDS011;2213;49.720;7.296;2023-03-04T08:12:01;27.80;;;10.20;;
4397;SDS011;2213;49.720;7.296;2023-03-04T08:14:32;28.87;;;10.83;;
4397;SDS011;2213;49.720;7.296;2023-03-04T08:17:03;27.97;;;10.23;;
4397;SDS011;2213;49.720;7.296;2023-03-04T08:19:32;22.20;;;8.57;;
4397;SDS011;2213;49.720;7.296;2023-03-04T08:22:01;23.93;;;9.10;;
4397;SDS011;2213;49.720;7.296;2023-03-04T08:24:31;27.13;;;8.57;;
4397;SDS011;2213;49.720;7.296;2023-03-04T08:27:01;25.60;;;9.13;;
4397;SDS011;2213;49.720;7.296;2023-03-04T08:29:32;25.07;;;9.03;;
4397;SDS011;2213;49.720;7.296;2023-03-04T08:32:02;19.77;;;8.30;;
4397;SDS011;2213;49.720;7.296;2023-03-04T08:34:33;27.60;;;8.00;;
4397;SDS011;2213;49.720;7.296;2023-03-04T08:37:02;24.90;;;8.10;;
4397;SDS011;2213;49.720;7.296;2023-03-04T08:39:30;13.20;;;6.70;;
4397;SDS011;2213;49.720;7.296;2023-03-04T08:42:02;20.57;;;7.50;;
4397;SDS011;2213;49.720;7.296;2023-03-04T08:44:32;21.30;;;7.77;;
4397;SDS011;2213;49.720;7.296;2023-03-04T08:47:04;30.43;;;7.53;;
4397;SDS011;2213;49.720;7.296;2023-03-04T08:49:36;26.97;;;7.60;;
4397;SDS011;2213;49.720;7.296;2023-03-04T08:52:06;19.37;;;7.97;;
4397;SDS011;2213;49.720;7.296;2023-03-04T08:54:36;18.30;;;7.03;;
4397;SDS011;2213;49.720;7.296;2023-03-04T08:57:05;18.00;;;6.57;;
4397;SDS011;2213;49.720;7.296;2023-03-04T08:59:34;13.90;;;6.50;;
4397;SDS011;2213;49.720;7.296;2023-03-04T09:02:05;17.50;;;6.50;;
4397;SDS011;2213;49.720;7.296;2023-03-04T09:04:37;24.00;;;6.77;;
4397;SDS011;2213;49.720;7.296;2023-03-04T09:07:06;31.03;;;8.07;;
4397;SDS011;2213;49.720;7.296;2023-03-04T09:09:37;14.00;;;7.20;;
4397;SDS011;2213;49.720;7.296;2023-03-04T09:12:07;26.03;;;7.30;;
4397;SDS011;2213;49.720;7.296;2023-03-04T09:14:38;21.20;;;7.17;;
4397;SDS011;2213;49.720;7.296;2023-03-04T09:17:08;11.63;;;6.27;;
4397;SDS011;2213;49.720;7.296;2023-03-04T09:19:39;16.13;;;6.93;;
4397;SDS011;2213;49.720;7.296;2023-03-04T09:22:09;19.07;;;7.10;;
4397;SDS011;2213;49.720;7.296;2023-03-04T09:24:38;13.43;;;7.00;;
4397;SDS011;2213;49.720;7.296;2023-03-04T09:27:09;14.93;;;7.03;;
4397;SDS011;2213;49.720;7.296;2023-03-04T09:29:38;19.50;;;7.27;;
4397;SDS011;2213;49.720;7.296;2023-03-04T09:32:09;24.03;;;7.00;;
4397;SDS011;2213;49.720;7.296;2023-03-04T09:34:37;16.17;;;5.97;;
4397;SDS011;2213;49.720;7.296;2023-03-04T09:37:07;21.43;;;7.67;;
4397;SDS011;2213;49.720;7.296;2023-03-04T09:39:37;15.07;;;5.60;;
4397;SDS011;2213;49.720;7.296;2023-03-04T09:42:08;19.20;;;7.50;;
4397;SDS011;2213;49.720;7.296;2023-03-04T09:44:46;21.83;;;7.70;;
4397;SDS011;2213;49.720;7.296;2023-03-04T09:47:18;16.43;;;7.37;;
4397;SDS011;2213;49.720;7.296;2023-03-04T09:49:52;20.10;;;6.60;;
4397;SDS011;2213;49.720;7.296;2023-03-04T09:52:28;19.33;;;7.97;;
4397;SDS011;2213;49.720;7.296;2023-03-04T09:55:20;19.23;;;7.77;;
4397;SDS011;2213;49.720;7.296;2023-03-04T09:57:55;20.87;;;7.27;;
4397;SDS011;2213;49.720;7.296;2023-03-04T10:00:32;30.50;;;7.67;;
4397;SDS011;2213;49.720;7.296;2023-03-04T10:03:13;22.00;;;8.30;;
4397;SDS011;2213;49.720;7.296;2023-03-04T10:05:50;21.33;;;7.00;;
4397;SDS011;2213;49.720;7.296;2023-03-04T10:08:28;28.87;;;9.10;;
4397;SDS011;2213;49.720;7.296;2023-03-04T10:11:06;20.60;;;6.73;;
4397;SDS011;2213;49.720;7.296;2023-03-04T10:13:46;23.33;;;7.43;;
4397;SDS011;2213;49.720;7.296;2023-03-04T10:16:32;15.20;;;6.50;;
4397;SDS011;2213;49.720;7.296;2023-03-04T10:19:18;16.53;;;5.17;;
4397;SDS011;2213;49.720;7.296;2023-03-04T10:21:57;30.97;;;7.70;;
4397;SDS011;2213;49.720;7.296;2023-03-04T10:24:28;15.20;;;5.90;;
4397;SDS011;2213;49.720;7.296;2023-03-04T10:27:00;22.33;;;7.60;;
4397;SDS011;2213;49.720;7.296;2023-03-04T10:29:37;15.23;;;5.80;;
4397;SDS011;2213;49.720;7.296;2023-03-04T10:32:08;22.00;;;7.70;;
4397;SDS011;2213;49.720;7.296;2023-03-04T10:34:44;17.40;;;5.37;;
4397;SDS011;2213;49.720;7.296;2023-03-04T10:37:14;17.80;;;6.90;;
4397;SDS011;2213;49.720;7.296;2023-03-04T10:39:44;21.87;;;7.00;;
4397;SDS011;2213;49.720;7.296;2023-03-04T10:42:25;15.70;;;7.07;;
4397;SDS011;2213;49.720;7.296;2023-03-04T10:45:03;17.73;;;6.23;;
4397;SDS011;2213;49.720;7.296;2023-03-04T10:47:52;24.63;;;6.83;;
4397;SDS011;2213;49.720;7.296;2023-03-04T10:50:26;26.17;;;6.60;;
4397;SDS011;2213;49.720;7.296;2023-03-04T10:52:55;20.13;;;6.37;;
4397;SDS011;2213;49.720;7.296;2023-03-04T10:55:26;17.67;;;6.53;;
4397;SDS011;2213;49.720;7.296;2023-03-04T10:58:11;23.73;;;7.10;;
4397;SDS011;2213;49.720;7.296;2023-03-04T11:00:47;21.47;;;6.00;;
4397;SDS011;2213;49.720;7.296;2023-03-04T11:03:29;14.73;;;6.90;;
4397;SDS011;2213;49.720;7.296;2023-03-04T11:06:10;23.73;;;7.00;;
4397;SDS011;2213;49.720;7.296;2023-03-04T11:08:53;13.53;;;6.50;;
4397;SDS011;2213;49.720;7.296;2023-03-04T11:11:27;14.97;;;7.60;;
4397;SDS011;2213;49.720;7.296;2023-03-04T11:14:09;16.90;;;7.10;;
4397;SDS011;2213;49.720;7.296;2023-03-04T11:16:53;26.57;;;8.07;;
4397;SDS011;2213;49.720;7.296;2023-03-04T11:19:27;33.90;;;8.33;;
4397;SDS011;2213;49.720;7.296;2023-03-04T11:22:08;21.73;;;8.77;;
4397;SDS011;2213;49.720;7.296;2023-03-04T11:24:42;18.00;;;8.10;;
4397;SDS011;2213;49.720;7.296;2023-03-04T11:27:19;21.50;;;6.37;;
4397;SDS011;2213;49.720;7.296;2023-03-04T11:30:02;19.77;;;8.23;;
4397;SDS011;2213;49.720;7.296;2023-03-04T11:32:54;23.03;;;7.27;;
4397;SDS011;2213;49.720;7.296;2023-03-04T11:35:37;21.47;;;6.53;;
4397;SDS011;2213;49.720;7.296;2023-03-04T11:38:19;30.97;;;6.93;;
4397;SDS011;2213;49.720;7.296;2023-03-04T11:40:55;21.60;;;7.80;;
4397;SDS011;2213;49.720;7.296;2023-03-04T11:43:33;24.20;;;7.93;;
4397;SDS011;2213;49.720;7.296;2023-03-04T11:46:13;29.60;;;7.80;;
4397;SDS011;2213;49.720;7.296;2023-03-04T11:52:25;15.53;;;7.30;;
4397;SDS011;2213;49.720;7.296;2023-03-04T11:58:12;21.33;;;7.47;;
4397;SDS011;2213;49.720;7.296;2023-03-04T12:01:23;27.87;;;8.23;;
4397;SDS011;2213;49.720;7.296;2023-03-04T12:04:15;18.10;;;6.33;;
4397;SDS011;2213;49.720;7.296;2023-03-04T12:07:12;21.63;;;7.57;;
4397;SDS011;2213;49.720;7.296;2023-03-04T12:10:31;26.50;;;7.20;;
4397;SDS011;2213;49.720;7.296;2023-03-04T12:13:14;21.07;;;8.80;;
4397;SDS011;2213;49.720;7.296;2023-03-04T12:16:36;20.77;;;6.73;;
4397;SDS011;2213;49.720;7.296;2023-03-04T12:23:17;19.13;;;6.90;;
4397;SDS011;2213;49.720;7.296;2023-03-04T12:26:08;16.67;;;6.53;;
4397;SDS011;2213;49.720;7.296;2023-03-04T12:29:00;16.40;;;5.50;;
4397;SDS011;2213;49.720;7.296;2023-03-04T12:31:41;14.87;;;6.90;;
4397;SDS011;2213;49.720;7.296;2023-03-04T12:34:31;17.43;;;6.93;;
4397;SDS011;2213;49.720;7.296;2023-03-04T12:37:25;29.03;;;6.20;;
4397;SDS011;2213;49.720;7.296;2023-03-04T12:40:41;23.97;;;5.47;;
4397;SDS011;2213;49.720;7.296;2023-03-04T12:43:26;23.80;;;6.03;;
4397;SDS011;2213;49.720;7.296;2023-03-04T12:46:10;14.43;;;5.33;;
4397;SDS011;2213;49.720;7.296;2023-03-04T12:49:01;20.40;;;5.30;;
4397;SDS011;2213;49.720;7.296;2023-03-04T12:52:07;22.80;;;5.90;;
4397;SDS011;2213;49.720;7.296;2023-03-04T12:54:49;18.77;;;5.70;;
4397;SDS011;2213;49.720;7.296;2023-03-04T12:57:24;18.00;;;6.00;;
4397;SDS011;2213;49.720;7.296;2023-03-04T12:59:58;15.60;;;4.80;;
4397;SDS011;2213;49.720;7.296;2023-03-04T13:02:50;16.90;;;5.27;;
4397;SDS011;2213;49.720;7.296;2023-03-04T13:05:42;13.73;;;5.20;;
4397;SDS011;2213;49.720;7.296;2023-03-04T13:08:34;14.10;;;4.70;;
4397;SDS011;2213;49.720;7.296;2023-03-04T13:11:41;10.90;;;4.77;;
4397;SDS011;2213;49.720;7.296;2023-03-04T13:20:12;14.47;;;5.87;;
4397;SDS011;2213;49.720;7.296;2023-03-04T13:22:50;11.90;;;3.90;;
4397;SDS011;2213;49.720;7.296;2023-03-04T13:25:30;8.50;;;4.47;;
4397;SDS011;2213;49.720;7.296;2023-03-04T13:28:12;11.90;;;4.47;;
4397;SDS011;2213;49.720;7.296;2023-03-04T13:33:51;10.83;;;3.90;;
4397;SDS011;2213;49.720;7.296;2023-03-04T13:36:34;10.20;;;3.80;;
4397;SDS011;2213;49.720;7.296;2023-03-04T13:39:29;8.00;;;3.20;;
4397;SDS011;2213;49.720;7.296;2023-03-04T13:42:02;7.80;;;3.90;;
4397;SDS011;2213;49.720;7.296;2023-03-04T13:48:02;8.20;;;3.73;;
4397;SDS011;2213;49.720;7.296;2023-03-04T13:50:51;8.07;;;4.00;;
4397;SDS011;2213;49.720;7.296;2023-03-04T13:53:21;12.67;;;4.27;;
4397;SDS011;2213;49.720;7.296;2023-03-04T13:56:20;9.43;;;3.73;;
4397;SDS011;2213;49.720;7.296;2023-03-04T13:59:23;14.93;;;3.40;;
4397;SDS011;2213;49.720;7.296;2023-03-04T14:02:00;6.93;;;3.80;;
4397;SDS011;2213;49.720;7.296;2023-03-04T14:04:38;7.77;;;3.57;;
4397;SDS011;2213;49.720;7.296;2023-03-04T14:07:17;10.60;;;3.60;;
4397;SDS011;2213;49.720;7.296;2023-03-04T14:09:54;7.17;;;3.63;;
4397;SDS011;2213;49.720;7.296;2023-03-04T14:12:27;11.90;;;3.17;;
4397;SDS011;2213;49.720;7.296;2023-03-04T14:14:59;6.03;;;3.57;;
4397;SDS011;2213;49.720;7.296;2023-03-04T14:17:35;6.50;;;3.17;;
4397;SDS011;2213;49.720;7.296;2023-03-04T14:20:20;13.67;;;3.57;;
4397;SDS011;2213;49.720;7.296;2023-03-04T14:22:54;5.50;;;3.00;;
4397;SDS011;2213;49.720;7.296;2023-03-04T14:25:25;7.30;;;3.90;;
4397;SDS011;2213;49.720;7.296;2023-03-04T14:28:03;9.97;;;3.30;;
4397;SDS011;2213;49.720;7.296;2023-03-04T14:30:38;10.43;;;3.60;;
4397;SDS011;2213;49.720;7.296;2023-03-04T14:33:15;9.23;;;4.77;;
4397;SDS011;2213;49.720;7.296;2023-03-04T14:35:49;8.13;;;4.20;;
4397;SDS011;2213;49.720;7.296;2023-03-04T14:38:22;6.13;;;3.70;;
4397;SDS011;2213;49.720;7.296;2023-03-04T14:40:56;9.00;;;3.70;;
4397;SDS011;2213;49.720;7.296;2023-03-04T14:43:33;9.50;;;4.10;;
4397;SDS011;2213;49.720;7.296;2023-03-04T14:46:09;13.02;;;4.50;;
4397;SDS011;2213;49.720;7.296;2023-03-04T14:48:46;9.33;;;4.10;;
4397;SDS011;2213;49.720;7.296;2023-03-04T14:51:30;5.03;;;3.13;;
4397;SDS011;2213;49.720;7.296;2023-03-04T14:57:01;6.40;;;3.17;;
4397;SDS011;2213;49.720;7.296;2023-03-04T14:59:51;5.37;;;3.40;;
4397;SDS011;2213;49.720;7.296;2023-03-04T15:02:25;7.60;;;3.30;;
4397;SDS011;2213;49.720;7.296;2023-03-04T15:05:06;17.77;;;8.47;;
4397;SDS011;2213;49.720;7.296;2023-03-04T15:07:42;6.53;;;3.70;;
4397;SDS011;2213;49.720;7.296;2023-03-04T15:10:22;22.47;;;8.77;;
4397;SDS011;2213;49.720;7.296;2023-03-04T15:13:35;11.20;;;3.90;;
4397;SDS011;2213;49.720;7.296;2023-03-04T15:16:10;7.60;;;3.53;;
4397;SDS011;2213;49.720;7.296;2023-03-04T15:18:52;11.43;;;3.47;;
4397;SDS011;2213;49.720;7.296;2023-03-04T15:21:28;8.13;;;3.50;;
4397;SDS011;2213;49.720;7.296;2023-03-04T15:24:06;4.80;;;2.50;;
4397;SDS011;2213;49.720;7.296;2023-03-04T15:26:39;7.10;;;3.47;;
4397;SDS011;2213;49.720;7.296;2023-03-04T15:29:12;4.80;;;2.77;;
4397;SDS011;2213;49.720;7.296;2023-03-04T15:31:43;5.13;;;3.20;;
4397;SDS011;2213;49.720;7.296;2023-03-04T15:34:15;4.60;;;2.57;;
4397;SDS011;2213;49.720;7.296;2023-03-04T15:36:49;9.10;;;2.80;;
4397;SDS011;2213;49.720;7.296;2023-03-04T15:39:20;3.53;;;2.63;;
4397;SDS011;2213;49.720;7.296;2023-03-04T15:41:53;4.67;;;3.03;;
4397;SDS011;2213;49.720;7.296;2023-03-04T15:44:22;5.77;;;3.10;;
4397;SDS011;2213;49.720;7.296;2023-03-04T15:46:52;9.27;;;3.40;;
4397;SDS011;2213;49.720;7.296;2023-03-04T15:49:23;4.97;;;2.67;;
4397;SDS011;2213;49.720;7.296;2023-03-04T15:51:57;4.30;;;3.00;;
4397;SDS011;2213;49.720;7.296;2023-03-04T15:54:28;7.90;;;2.23;;
4397;SDS011;2213;49.720;7.296;2023-03-04T15:56:58;3.53;;;2.37;;
4397;SDS011;2213;49.720;7.296;2023-03-04T15:59:31;4.67;;;2.33;;
4397;SDS011;2213;49.720;7.296;2023-03-04T16:02:01;5.33;;;2.47;;
4397;SDS011;2213;49.720;7.296;2023-03-04T16:04:30;5.17;;;2.90;;